sensor_id;sensor_type;location;lat;lon;timestamp;temperature;humidity
76040;SHT30;64736;50.462;4.850;2023-02-15T00:01:41;2.67;84.43
76040;SHT30;64736;50.462;4.850;2023-02-15T00:04:07;2.81;83.27
76040;SHT30;64736;50.462;4.850;2023-02-15T00:06:33;2.45;84.47
76040;SHT30;64736;50.462;4.850;2023-02-15T00:08:59;2.32;85.64
76040;SHT30;64736;50.462;4.850;2023-02-15T00:11:25;2.42;85.93
76040;SHT30;64736;50.462;4.850;2023-02-15T00:14:22;2.60;84.00
76040;SHT30;64736;50.462;4.850;2023-02-15T00:16:50;2.45;83.99
76040;SHT30;64736;50.462;4.850;2023-02-15T00:19:17;2.39;84.75
76040;SHT30;64736;50.462;4.850;2023-02-15T00:21:44;2.29;85.51
76040;SHT30;64736;50.462;4.850;2023-02-15T00:24:11;2.48;85.68
76040;SHT30;64736;50.462;4.850;2023-02-15T00:26:39;2.29;84.71
76040;SHT30;64736;50.462;4.850;2023-02-15T00:29:05;2.43;84.85
76040;SHT30;64736;50.462;4.850;2023-02-15T00:31:32;2.73;83.41
76040;SHT30;64736;50.462;4.850;2023-02-15T00:34:06;2.77;81.94
76040;SHT30;64736;50.462;4.850;2023-02-15T00:36:32;2.62;82.08
76040;SHT30;64736;50.462;4.850;2023-02-15T00:38:58;2.56;82.89
76040;SHT30;64736;50.462;4.850;2023-02-15T00:41:24;2.18;83.26
76040;SHT30;64736;50.462;4.850;2023-02-15T00:43:50;2.36;83.72
76040;SHT30;64736;50.462;4.850;2023-02-15T00:46:16;2.52;83.63
76040;SHT30;64736;50.462;4.850;2023-02-15T00:48:42;2.31;83.32
76040;SHT30;64736;50.462;4.850;2023-02-15T00:51:08;2.18;83.83
76040;SHT30;64736;50.462;4.850;2023-02-15T00:53:34;2.32;84.35
76040;SHT30;64736;50.462;4.850;2023-02-15T00:56:00;2.36;83.29
76040;SHT30;64736;50.462;4.850;2023-02-15T00:58:26;2.53;82.58
76040;SHT30;64736;50.462;4.850;2023-02-15T01:00:52;2.41;82.64
76040;SHT30;64736;50.462;4.850;2023-02-15T01:03:19;2.26;83.21
76040;SHT30;64736;50.462;4.850;2023-02-15T01:05:47;2.20;84.04
76040;SHT30;64736;50.462;4.850;2023-02-15T01:08:13;2.32;84.26
76040;SHT30;64736;50.462;4.850;2023-02-15T01:10:38;2.45;82.46
76040;SHT30;64736;50.462;4.850;2023-02-15T01:13:05;2.15;83.40
76040;SHT30;64736;50.462;4.850;2023-02-15T01:15:31;1.94;83.87
76040;SHT30;64736;50.462;4.850;2023-02-15T01:17:56;1.95;84.44
76040;SHT30;64736;50.462;4.850;2023-02-15T01:20:28;1.93;84.75
76040;SHT30;64736;50.462;4.850;2023-02-15T01:22:54;2.14;84.42
76040;SHT30;64736;50.462;4.850;2023-02-15T01:25:23;2.28;83.72
76040;SHT30;64736;50.462;4.850;2023-02-15T01:27:49;2.20;82.42
76040;SHT30;64736;50.462;4.850;2023-02-15T01:30:15;2.07;82.76
76040;SHT30;64736;50.462;4.850;2023-02-15T01:32:42;1.71;84.49
76040;SHT30;64736;50.462;4.850;2023-02-15T01:35:09;1.31;86.95
76040;SHT30;64736;50.462;4.850;2023-02-15T01:37:36;1.26;87.59
76040;SHT30;64736;50.462;4.850;2023-02-15T01:40:03;1.29;87.49
76040;SHT30;64736;50.462;4.850;2023-02-15T01:42:30;1.24;87.22
76040;SHT30;64736;50.462;4.850;2023-02-15T01:44:58;1.36;87.37
76040;SHT30;64736;50.462;4.850;2023-02-15T01:48:04;1.36;87.02
76040;SHT30;64736;50.462;4.850;2023-02-15T01:50:47;1.66;86.51
76040;SHT30;64736;50.462;4.850;2023-02-15T01:55:50;1.53;86.18
76040;SHT30;64736;50.462;4.850;2023-02-15T01:58:19;1.53;86.25
76040;SHT30;64736;50.462;4.850;2023-02-15T02:00:45;1.59;86.30
76040;SHT30;64736;50.462;4.850;2023-02-15T02:03:12;1.68;85.93
76040;SHT30;64736;50.462;4.850;2023-02-15T02:05:39;1.64;85.51
76040;SHT30;64736;50.462;4.850;2023-02-15T02:08:05;1.52;85.55
76040;SHT30;64736;50.462;4.850;2023-02-15T02:10:31;1.70;85.69
76040;SHT30;64736;50.462;4.850;2023-02-15T02:13:04;1.77;84.95
76040;SHT30;64736;50.462;4.850;2023-02-15T02:15:47;1.85;83.90
76040;SHT30;64736;50.462;4.850;2023-02-15T02:18:27;1.85;83.95
76040;SHT30;64736;50.462;4.850;2023-02-15T02:30:04;1.60;83.99
76040;SHT30;64736;50.462;4.850;2023-02-15T02:35:53;1.46;85.52
76040;SHT30;64736;50.462;4.850;2023-02-15T02:43:59;1.57;84.14
76040;SHT30;64736;50.462;4.850;2023-02-15T02:46:52;1.39;84.48
76040;SHT30;64736;50.462;4.850;2023-02-15T02:54:52;1.05;85.45
76040;SHT30;64736;50.462;4.850;2023-02-15T02:57:18;1.07;86.37
76040;SHT30;64736;50.462;4.850;2023-02-15T02:59:45;1.15;86.44
76040;SHT30;64736;50.462;4.850;2023-02-15T03:02:34;1.42;85.95
76040;SHT30;64736;50.462;4.850;2023-02-15T03:05:16;1.34;84.93
76040;SHT30;64736;50.462;4.850;2023-02-15T03:07:49;1.18;85.28
76040;SHT30;64736;50.462;4.850;2023-02-15T03:10:18;1.43;85.35
76040;SHT30;64736;50.462;4.850;2023-02-15T03:12:46;1.42;85.06
76040;SHT30;64736;50.462;4.850;2023-02-15T03:15:26;1.35;84.66
76040;SHT30;64736;50.462;4.850;2023-02-15T03:18:16;1.45;85.19
76040;SHT30;64736;50.462;4.850;2023-02-15T03:20:44;1.31;85.13
76040;SHT30;64736;50.462;4.850;2023-02-15T03:23:15;1.09;85.72
76040;SHT30;64736;50.462;4.850;2023-02-15T03:25:44;1.07;86.42
76040;SHT30;64736;50.462;4.850;2023-02-15T03:28:17;1.02;86.57
76040;SHT30;64736;50.462;4.850;2023-02-15T03:30:46;0.85;87.06
76040;SHT30;64736;50.462;4.850;2023-02-15T03:33:14;0.85;87.51
76040;SHT30;64736;50.462;4.850;2023-02-15T03:36:08;0.73;87.89
76040;SHT30;64736;50.462;4.850;2023-02-15T03:39:02;0.81;87.82
76040;SHT30;64736;50.462;4.850;2023-02-15T03:41:34;0.70;88.00
76040;SHT30;64736;50.462;4.850;2023-02-15T03:44:30;0.63;88.31
76040;SHT30;64736;50.462;4.850;2023-02-15T03:47:07;0.71;88.38
76040;SHT30;64736;50.462;4.850;2023-02-15T03:49:43;0.61;88.10
76040;SHT30;64736;50.462;4.850;2023-02-15T03:52:11;0.71;88.04
76040;SHT30;64736;50.462;4.850;2023-02-15T03:54:40;0.81;87.92
76040;SHT30;64736;50.462;4.850;2023-02-15T03:57:24;1.05;87.77
76040;SHT30;64736;50.462;4.850;2023-02-15T04:00:12;1.11;87.01
76040;SHT30;64736;50.462;4.850;2023-02-15T04:05:43;1.04;86.51
76040;SHT30;64736;50.462;4.850;2023-02-15T04:08:11;0.78;86.67
76040;SHT30;64736;50.462;4.850;2023-02-15T04:10:37;0.73;87.08
76040;SHT30;64736;50.462;4.850;2023-02-15T04:13:29;0.99;87.09
76040;SHT30;64736;50.462;4.850;2023-02-15T04:15:55;0.92;86.83
76040;SHT30;64736;50.462;4.850;2023-02-15T04:18:31;0.70;87.15
76040;SHT30;64736;50.462;4.850;2023-02-15T04:21:17;0.66;87.49
76040;SHT30;64736;50.462;4.850;2023-02-15T04:24:01;0.99;87.31
76040;SHT30;64736;50.462;4.850;2023-02-15T04:26:45;1.01;86.25
76040;SHT30;64736;50.462;4.850;2023-02-15T04:29:15;0.91;86.25
76040;SHT30;64736;50.462;4.850;2023-02-15T04:31:41;1.07;86.38
76040;SHT30;64736;50.462;4.850;2023-02-15T04:34:08;1.19;85.56
76040;SHT30;64736;50.462;4.850;2023-02-15T04:36:35;1.19;85.20
76040;SHT30;64736;50.462;4.850;2023-02-15T04:39:00;1.09;85.04
76040;SHT30;64736;50.462;4.850;2023-02-15T04:41:26;0.99;85.42
76040;SHT30;64736;50.462;4.850;2023-02-15T04:43:52;0.83;85.73
76040;SHT30;64736;50.462;4.850;2023-02-15T04:46:17;0.61;86.40
76040;SHT30;64736;50.462;4.850;2023-02-15T04:48:43;0.59;87.06
76040;SHT30;64736;50.462;4.850;2023-02-15T04:51:09;0.52;87.40
76040;SHT30;64736;50.462;4.850;2023-02-15T04:53:35;0.43;87.95
76040;SHT30;64736;50.462;4.850;2023-02-15T04:56:01;0.38;88.44
76040;SHT30;64736;50.462;4.850;2023-02-15T04:58:27;0.54;88.32
76040;SHT30;64736;50.462;4.850;2023-02-15T05:00:56;0.53;88.25
76040;SHT30;64736;50.462;4.850;2023-02-15T05:03:22;0.46;88.41
76040;SHT30;64736;50.462;4.850;2023-02-15T05:05:48;0.42;88.38
76040;SHT30;64736;50.462;4.850;2023-02-15T05:08:14;0.39;88.21
76040;SHT30;64736;50.462;4.850;2023-02-15T05:10:40;0.67;88.04
76040;SHT30;64736;50.462;4.850;2023-02-15T05:13:06;0.49;87.86
76040;SHT30;64736;50.462;4.850;2023-02-15T05:15:32;0.40;88.04
76040;SHT30;64736;50.462;4.850;2023-02-15T05:17:57;0.63;88.08
76040;SHT30;64736;50.462;4.850;2023-02-15T05:20:23;0.50;87.56
76040;SHT30;64736;50.462;4.850;2023-02-15T05:22:50;0.40;87.50
76040;SHT30;64736;50.462;4.850;2023-02-15T05:25:19;0.39;88.10
76040;SHT30;64736;50.462;4.850;2023-02-15T05:28:03;0.60;87.70
76040;SHT30;64736;50.462;4.850;2023-02-15T05:30:48;0.70;87.01
76040;SHT30;64736;50.462;4.850;2023-02-15T05:33:14;0.53;87.21
76040;SHT30;64736;50.462;4.850;2023-02-15T05:35:40;0.64;87.53
76040;SHT30;64736;50.462;4.850;2023-02-15T05:38:06;0.40;88.19
76040;SHT30;64736;50.462;4.850;2023-02-15T05:40:32;0.45;88.74
76040;SHT30;64736;50.462;4.850;2023-02-15T05:42:58;0.63;88.72
76040;SHT30;64736;50.462;4.850;2023-02-15T05:45:23;0.61;88.44
76040;SHT30;64736;50.462;4.850;2023-02-15T05:47:49;0.59;88.45
76040;SHT30;64736;50.462;4.850;2023-02-15T05:50:16;0.54;88.43
76040;SHT30;64736;50.462;4.850;2023-02-15T05:52:41;0.50;88.52
76040;SHT30;64736;50.462;4.850;2023-02-15T05:55:07;0.49;88.76
76040;SHT30;64736;50.462;4.850;2023-02-15T05:57:35;0.32;89.01
76040;SHT30;64736;50.462;4.850;2023-02-15T06:00:03;0.20;89.47
76040;SHT30;64736;50.462;4.850;2023-02-15T06:02:33;0.23;89.65
76040;SHT30;64736;50.462;4.850;2023-02-15T06:04:59;0.33;89.54
76040;SHT30;64736;50.462;4.850;2023-02-15T06:07:25;0.35;89.44
76040;SHT30;64736;50.462;4.850;2023-02-15T06:09:50;0.20;89.41
76040;SHT30;64736;50.462;4.850;2023-02-15T06:12:16;0.26;89.53
76040;SHT30;64736;50.462;4.850;2023-02-15T06:14:42;0.26;89.46
76040;SHT30;64736;50.462;4.850;2023-02-15T06:17:08;0.50;89.32
76040;SHT30;64736;50.462;4.850;2023-02-15T06:19:33;0.54;89.06
76040;SHT30;64736;50.462;4.850;2023-02-15T06:21:59;0.52;88.84
76040;SHT30;64736;50.462;4.850;2023-02-15T06:24:25;0.76;87.53
76040;SHT30;64736;50.462;4.850;2023-02-15T06:26:51;0.52;87.17
76040;SHT30;64736;50.462;4.850;2023-02-15T06:29:16;0.70;87.31
76040;SHT30;64736;50.462;4.850;2023-02-15T06:31:42;0.56;86.84
76040;SHT30;64736;50.462;4.850;2023-02-15T06:34:08;0.49;87.76
76040;SHT30;64736;50.462;4.850;2023-02-15T06:36:34;0.77;87.21
76040;SHT30;64736;50.462;4.850;2023-02-15T06:39:00;0.57;87.01
76040;SHT30;64736;50.462;4.850;2023-02-15T06:41:27;0.26;87.92
76040;SHT30;64736;50.462;4.850;2023-02-15T06:43:52;0.32;88.50
76040;SHT30;64736;50.462;4.850;2023-02-15T06:46:18;0.13;88.63
76040;SHT30;64736;50.462;4.850;2023-02-15T06:48:44;0.20;89.00
76040;SHT30;64736;50.462;4.850;2023-02-15T06:51:09;0.39;88.91
76040;SHT30;64736;50.462;4.850;2023-02-15T06:53:35;0.64;88.74
76040;SHT30;64736;50.462;4.850;2023-02-15T06:56:06;0.85;87.78
76040;SHT30;64736;50.462;4.850;2023-02-15T06:58:38;0.64;86.90
76040;SHT30;64736;50.462;4.850;2023-02-15T07:01:04;0.59;86.97
76040;SHT30;64736;50.462;4.850;2023-02-15T07:03:30;0.84;86.62
76040;SHT30;64736;50.462;4.850;2023-02-15T07:05:58;0.66;86.68
76040;SHT30;64736;50.462;4.850;2023-02-15T07:08:25;0.68;87.11
76040;SHT30;64736;50.462;4.850;2023-02-15T07:10:51;0.56;86.77
76040;SHT30;64736;50.462;4.850;2023-02-15T07:13:18;0.60;87.18
76040;SHT30;64736;50.462;4.850;2023-02-15T07:15:44;0.85;86.41
76040;SHT30;64736;50.462;4.850;2023-02-15T07:18:10;0.71;86.36
76040;SHT30;64736;50.462;4.850;2023-02-15T07:20:37;0.57;86.93
76040;SHT30;64736;50.462;4.850;2023-02-15T07:23:04;0.71;87.12
76040;SHT30;64736;50.462;4.850;2023-02-15T07:25:30;0.63;86.89
76040;SHT30;64736;50.462;4.850;2023-02-15T07:27:57;0.50;87.69
76040;SHT30;64736;50.462;4.850;2023-02-15T07:30:24;0.78;87.82
76040;SHT30;64736;50.462;4.850;2023-02-15T07:32:50;0.67;87.35
76040;SHT30;64736;50.462;4.850;2023-02-15T07:35:34;0.97;87.18
76040;SHT30;64736;50.462;4.850;2023-02-15T07:38:00;1.01;86.79
76040;SHT30;64736;50.462;4.850;2023-02-15T07:40:26;1.08;86.26
76040;SHT30;64736;50.462;4.850;2023-02-15T07:42:52;1.08;85.82
76040;SHT30;64736;50.462;4.850;2023-02-15T07:45:20;0.89;86.30
76040;SHT30;64736;50.462;4.850;2023-02-15T07:47:46;0.77;87.27
76040;SHT30;64736;50.462;4.850;2023-02-15T07:50:12;0.87;87.71
76040;SHT30;64736;50.462;4.850;2023-02-15T07:52:38;1.28;87.11
76040;SHT30;64736;50.462;4.850;2023-02-15T07:55:04;1.05;86.66
76040;SHT30;64736;50.462;4.850;2023-02-15T07:57:31;1.29;86.87
76040;SHT30;64736;50.462;4.850;2023-02-15T07:59:57;1.42;85.78
76040;SHT30;64736;50.462;4.850;2023-02-15T08:02:22;1.46;85.31
76040;SHT30;64736;50.462;4.850;2023-02-15T08:04:48;1.36;85.46
76040;SHT30;64736;50.462;4.850;2023-02-15T08:07:14;1.26;86.37
76040;SHT30;64736;50.462;4.850;2023-02-15T08:09:39;1.38;86.96
76040;SHT30;64736;50.462;4.850;2023-02-15T08:12:06;1.52;86.72
76040;SHT30;64736;50.462;4.850;2023-02-15T08:14:31;1.47;86.16
76040;SHT30;64736;50.462;4.850;2023-02-15T08:16:59;1.62;86.18
76040;SHT30;64736;50.462;4.850;2023-02-15T08:19:29;1.50;86.11
76040;SHT30;64736;50.462;4.850;2023-02-15T08:22:01;1.42;86.57
76040;SHT30;64736;50.462;4.850;2023-02-15T08:24:29;1.63;86.77
76040;SHT30;64736;50.462;4.850;2023-02-15T08:26:55;1.31;86.65
76040;SHT30;64736;50.462;4.850;2023-02-15T08:29:24;1.59;86.92
76040;SHT30;64736;50.462;4.850;2023-02-15T08:31:53;1.88;86.52
76040;SHT30;64736;50.462;4.850;2023-02-15T08:34:20;1.60;86.57
76040;SHT30;64736;50.462;4.850;2023-02-15T08:36:46;1.75;86.89
76040;SHT30;64736;50.462;4.850;2023-02-15T08:39:14;1.84;86.92
76040;SHT30;64736;50.462;4.850;2023-02-15T08:41:45;2.12;86.44
76040;SHT30;64736;50.462;4.850;2023-02-15T08:44:12;2.20;86.04
76040;SHT30;64736;50.462;4.850;2023-02-15T08:46:41;2.32;85.06
76040;SHT30;64736;50.462;4.850;2023-02-15T08:49:09;2.32;85.13
76040;SHT30;64736;50.462;4.850;2023-02-15T08:51:36;2.38;85.01
76040;SHT30;64736;50.462;4.850;2023-02-15T08:54:06;2.42;85.13
76040;SHT30;64736;50.462;4.850;2023-02-15T08:56:34;2.50;85.03
76040;SHT30;64736;50.462;4.850;2023-02-15T08:59:00;2.66;84.88
76040;SHT30;64736;50.462;4.850;2023-02-15T09:01:28;2.75;84.44
76040;SHT30;64736;50.462;4.850;2023-02-15T09:04:00;2.73;84.78
76040;SHT30;64736;50.462;4.850;2023-02-15T09:06:27;2.89;84.91
76040;SHT30;64736;50.462;4.850;2023-02-15T09:08:54;2.64;85.16
76040;SHT30;64736;50.462;4.850;2023-02-15T09:11:28;2.94;85.19
76040;SHT30;64736;50.462;4.850;2023-02-15T09:13:56;2.87;83.87
76040;SHT30;64736;50.462;4.850;2023-02-15T09:16:24;3.18;83.93
76040;SHT30;64736;50.462;4.850;2023-02-15T09:18:50;3.27;83.47
76040;SHT30;64736;50.462;4.850;2023-02-15T09:21:19;3.48;83.48
76040;SHT30;64736;50.462;4.850;2023-02-15T09:23:48;3.63;83.04
76040;SHT30;64736;50.462;4.850;2023-02-15T09:26:17;3.72;82.91
76040;SHT30;64736;50.462;4.850;2023-02-15T09:28:43;3.76;82.80
76040;SHT30;64736;50.462;4.850;2023-02-15T09:31:14;3.94;82.30
76040;SHT30;64736;50.462;4.850;2023-02-15T09:33:41;4.00;82.40
76040;SHT30;64736;50.462;4.850;2023-02-15T09:38:41;4.27;82.13
76040;SHT30;64736;50.462;4.850;2023-02-15T09:44:19;4.55;80.65
76040;SHT30;64736;50.462;4.850;2023-02-15T09:49:34;4.80;80.11
76040;SHT30;64736;50.462;4.850;2023-02-15T09:55:13;5.19;79.48
76040;SHT30;64736;50.462;4.850;2023-02-15T09:58:47;5.32;78.39
76040;SHT30;64736;50.462;4.850;2023-02-15T10:03:42;5.58;78.31
76040;SHT30;64736;50.462;4.850;2023-02-15T10:06:31;5.78;77.40
76040;SHT30;64736;50.462;4.850;2023-02-15T10:22:51;12.99;51.79
76040;SHT30;64736;50.462;4.850;2023-02-15T10:25:26;13.27;48.70
76040;SHT30;64736;50.462;4.850;2023-02-15T10:28:05;13.55;49.30
76040;SHT30;64736;50.462;4.850;2023-02-15T10:30:48;13.65;47.92
76040;SHT30;64736;50.462;4.850;2023-02-15T10:36:41;12.03;49.64
76040;SHT30;64736;50.462;4.850;2023-02-15T10:39:46;11.83;51.09
76040;SHT30;64736;50.462;4.850;2023-02-15T10:48:21;12.49;49.61
76040;SHT30;64736;50.462;4.850;2023-02-15T10:50:58;12.65;49.17
76040;SHT30;64736;50.462;4.850;2023-02-15T10:58:59;13.10;48.92
76040;SHT30;64736;50.462;4.850;2023-02-15T11:06:53;13.96;46.45
76040;SHT30;64736;50.462;4.850;2023-02-15T11:09:22;13.43;47.61
76040;SHT30;64736;50.462;4.850;2023-02-15T11:11:54;13.69;47.39
76040;SHT30;64736;50.462;4.850;2023-02-15T11:17:24;14.36;45.34
76040;SHT30;64736;50.462;4.850;2023-02-15T11:22:36;14.57;45.41
76040;SHT30;64736;50.462;4.850;2023-02-15T11:25:04;14.95;44.67
76040;SHT30;64736;50.462;4.850;2023-02-15T11:27:37;15.90;42.53
76040;SHT30;64736;50.462;4.850;2023-02-15T11:30:15;15.94;41.95
76040;SHT30;64736;50.462;4.850;2023-02-15T11:32:48;16.74;41.23
76040;SHT30;64736;50.462;4.850;2023-02-15T11:35:31;17.27;39.46
76040;SHT30;64736;50.462;4.850;2023-02-15T11:38:10;17.34;39.66
76040;SHT30;64736;50.462;4.850;2023-02-15T11:40:51;17.58;38.62
76040;SHT30;64736;50.462;4.850;2023-02-15T11:43:37;17.68;38.59
76040;SHT30;64736;50.462;4.850;2023-02-15T11:46:05;17.78;39.11
76040;SHT30;64736;50.462;4.850;2023-02-15T11:48:33;17.13;40.01
76040;SHT30;64736;50.462;4.850;2023-02-15T11:51:00;17.68;38.92
76040;SHT30;64736;50.462;4.850;2023-02-15T11:53:29;17.70;38.92
76040;SHT30;64736;50.462;4.850;2023-02-15T11:55:57;17.38;40.33
76040;SHT30;64736;50.462;4.850;2023-02-15T11:58:37;17.36;38.52
76040;SHT30;64736;50.462;4.850;2023-02-15T12:01:33;17.62;38.41
76040;SHT30;64736;50.462;4.850;2023-02-15T12:06:55;17.89;38.22
76040;SHT30;64736;50.462;4.850;2023-02-15T12:14:51;18.71;36.47
76040;SHT30;64736;50.462;4.850;2023-02-15T12:17:18;19.24;35.21
76040;SHT30;64736;50.462;4.850;2023-02-15T12:19:46;19.28;34.73
76040;SHT30;64736;50.462;4.850;2023-02-15T12:22:28;19.93;34.35
76040;SHT30;64736;50.462;4.850;2023-02-15T12:24:56;19.96;33.52
76040;SHT30;64736;50.462;4.850;2023-02-15T12:27:32;19.34;34.91
76040;SHT30;64736;50.462;4.850;2023-02-15T12:30:06;18.48;36.48
76040;SHT30;64736;50.462;4.850;2023-02-15T12:35:27;17.96;37.75
76040;SHT30;64736;50.462;4.850;2023-02-15T12:38:19;17.68;38.56
76040;SHT30;64736;50.462;4.850;2023-02-15T12:40:57;18.51;36.60
76040;SHT30;64736;50.462;4.850;2023-02-15T12:43:34;18.23;36.90
76040;SHT30;64736;50.462;4.850;2023-02-15T12:46:24;19.00;36.40
76040;SHT30;64736;50.462;4.850;2023-02-15T12:49:19;20.01;34.70
76040;SHT30;64736;50.462;4.850;2023-02-15T12:51:48;19.85;35.28
76040;SHT30;64736;50.462;4.850;2023-02-15T12:54:41;19.85;35.39
76040;SHT30;64736;50.462;4.850;2023-02-15T12:57:31;19.57;35.24
76040;SHT30;64736;50.462;4.850;2023-02-15T13:00:11;19.09;36.34
76040;SHT30;64736;50.462;4.850;2023-02-15T13:02:55;19.35;35.36
76040;SHT30;64736;50.462;4.850;2023-02-15T13:10:37;17.82;38.97
76040;SHT30;64736;50.462;4.850;2023-02-15T13:13:17;17.93;39.02
76040;SHT30;64736;50.462;4.850;2023-02-15T13:15:48;18.03;39.07
76040;SHT30;64736;50.462;4.850;2023-02-15T13:18:39;18.72;37.68
76040;SHT30;64736;50.462;4.850;2023-02-15T13:21:32;18.96;36.97
76040;SHT30;64736;50.462;4.850;2023-02-15T13:24:28;19.28;36.87
76040;SHT30;64736;50.462;4.850;2023-02-15T13:26:57;19.61;36.07
76040;SHT30;64736;50.462;4.850;2023-02-15T13:31:52;19.20;37.10
76040;SHT30;64736;50.462;4.850;2023-02-15T13:34:34;18.93;37.17
76040;SHT30;64736;50.462;4.850;2023-02-15T13:39:58;18.23;37.59
76040;SHT30;64736;50.462;4.850;2023-02-15T13:42:32;19.50;35.75
76040;SHT30;64736;50.462;4.850;2023-02-15T13:50:53;19.49;36.84
76040;SHT30;64736;50.462;4.850;2023-02-15T13:56:54;20.12;34.97
76040;SHT30;64736;50.462;4.850;2023-02-15T14:10:45;19.13;36.87
76040;SHT30;64736;50.462;4.850;2023-02-15T14:13:33;18.88;37.37
76040;SHT30;64736;50.462;4.850;2023-02-15T14:19:27;18.62;37.86
76040;SHT30;64736;50.462;4.850;2023-02-15T14:24:29;18.72;37.90
76040;SHT30;64736;50.462;4.850;2023-02-15T14:26:59;18.17;38.61
76040;SHT30;64736;50.462;4.850;2023-02-15T14:29:49;17.96;39.13
76040;SHT30;64736;50.462;4.850;2023-02-15T14:32:36;18.09;39.22
76040;SHT30;64736;50.462;4.850;2023-02-15T14:35:14;18.03;39.59
76040;SHT30;64736;50.462;4.850;2023-02-15T14:40:30;17.68;40.44
76040;SHT30;64736;50.462;4.850;2023-02-15T14:43:37;17.00;41.42
76040;SHT30;64736;50.462;4.850;2023-02-15T14:48:45;16.77;41.74
76040;SHT30;64736;50.462;4.850;2023-02-15T14:54:56;16.41;43.06
76040;SHT30;64736;50.462;4.850;2023-02-15T15:07:03;15.88;44.66
76040;SHT30;64736;50.462;4.850;2023-02-15T15:09:33;15.76;45.57
76040;SHT30;64736;50.462;4.850;2023-02-15T15:14:58;15.46;45.70
76040;SHT30;64736;50.462;4.850;2023-02-15T15:17:55;15.54;45.19
76040;SHT30;64736;50.462;4.850;2023-02-15T15:36:53;14.78;47.12
76040;SHT30;64736;50.462;4.850;2023-02-15T15:48:43;14.37;48.48
76040;SHT30;64736;50.462;4.850;2023-02-15T15:51:25;14.33;48.80
76040;SHT30;64736;50.462;4.850;2023-02-15T15:53:56;14.27;48.84
76040;SHT30;64736;50.462;4.850;2023-02-15T15:56:27;14.09;49.39
76040;SHT30;64736;50.462;4.850;2023-02-15T15:59:01;14.12;49.50
76040;SHT30;64736;50.462;4.850;2023-02-15T16:01:30;14.10;49.30
76040;SHT30;64736;50.462;4.850;2023-02-15T16:03:58;13.92;49.68
76040;SHT30;64736;50.462;4.850;2023-02-15T16:06:36;13.86;49.99
76040;SHT30;64736;50.462;4.850;2023-02-15T16:11:47;13.61;51.45
76040;SHT30;64736;50.462;4.850;2023-02-15T16:14:39;13.53;51.86
76040;SHT30;64736;50.462;4.850;2023-02-15T16:17:07;13.47;50.78
76040;SHT30;64736;50.462;4.850;2023-02-15T16:19:37;13.34;51.61
76040;SHT30;64736;50.462;4.850;2023-02-15T16:22:11;13.40;51.89
76040;SHT30;64736;50.462;4.850;2023-02-15T16:27:21;13.07;52.44
76040;SHT30;64736;50.462;4.850;2023-02-15T16:29:49;13.10;52.99
76040;SHT30;64736;50.462;4.850;2023-02-15T16:32:23;12.92;53.42
76040;SHT30;64736;50.462;4.850;2023-02-15T16:34:51;12.82;53.75
76040;SHT30;64736;50.462;4.850;2023-02-15T16:37:32;12.71;52.99
76040;SHT30;64736;50.462;4.850;2023-02-15T16:39:58;12.69;52.74
76040;SHT30;64736;50.462;4.850;2023-02-15T16:42:25;12.58;53.86
76040;SHT30;64736;50.462;4.850;2023-02-15T16:45:05;12.37;53.99
76040;SHT30;64736;50.462;4.850;2023-02-15T16:47:41;12.14;54.69
76040;SHT30;64736;50.462;4.850;2023-02-15T16:50:22;12.13;54.89
76040;SHT30;64736;50.462;4.850;2023-02-15T16:52:49;12.03;54.99
76040;SHT30;64736;50.462;4.850;2023-02-15T16:55:31;11.89;55.89
76040;SHT30;64736;50.462;4.850;2023-02-15T16:58:03;11.79;55.55
76040;SHT30;64736;50.462;4.850;2023-02-15T17:00:37;11.80;55.60
76040;SHT30;64736;50.462;4.850;2023-02-15T17:05:50;11.75;55.76
76040;SHT30;64736;50.462;4.850;2023-02-15T17:08:43;11.67;55.89
76040;SHT30;64736;50.462;4.850;2023-02-15T17:11:21;11.55;56.53
76040;SHT30;64736;50.462;4.850;2023-02-15T17:14:12;11.40;57.09
76040;SHT30;64736;50.462;4.850;2023-02-15T17:19:33;11.24;57.13
76040;SHT30;64736;50.462;4.850;2023-02-15T17:22:06;11.32;57.04
76040;SHT30;64736;50.462;4.850;2023-02-15T17:24:41;11.25;57.13
76040;SHT30;64736;50.462;4.850;2023-02-15T17:27:18;11.19;56.89
76040;SHT30;64736;50.462;4.850;2023-02-15T17:29:49;11.19;56.84
76040;SHT30;64736;50.462;4.850;2023-02-15T17:32:22;11.18;56.80
76040;SHT30;64736;50.462;4.850;2023-02-15T17:35:08;11.11;57.19
76040;SHT30;64736;50.462;4.850;2023-02-15T17:37:45;10.98;57.53
76040;SHT30;64736;50.462;4.850;2023-02-15T17:40:24;10.80;58.44
76040;SHT30;64736;50.462;4.850;2023-02-15T17:42:50;10.63;59.05
76040;SHT30;64736;50.462;4.850;2023-02-15T17:45:16;10.52;59.33
76040;SHT30;64736;50.462;4.850;2023-02-15T17:47:43;10.31;59.90
76040;SHT30;64736;50.462;4.850;2023-02-15T17:50:21;10.28;59.87
76040;SHT30;64736;50.462;4.850;2023-02-15T17:52:48;10.36;59.42
76040;SHT30;64736;50.462;4.850;2023-02-15T17:55:16;10.38;59.33
76040;SHT30;64736;50.462;4.850;2023-02-15T17:58:14;10.33;59.47
76040;SHT30;64736;50.462;4.850;2023-02-15T18:00:48;10.32;59.72
76040;SHT30;64736;50.462;4.850;2023-02-15T18:06:25;10.12;60.21
76040;SHT30;64736;50.462;4.850;2023-02-15T18:09:15;10.11;59.99
76040;SHT30;64736;50.462;4.850;2023-02-15T18:11:59;10.09;60.06
76040;SHT30;64736;50.462;4.850;2023-02-15T18:14:25;10.05;59.99
76040;SHT30;64736;50.462;4.850;2023-02-15T18:16:51;9.95;60.12
76040;SHT30;64736;50.462;4.850;2023-02-15T18:19:23;9.97;59.94
76040;SHT30;64736;50.462;4.850;2023-02-15T18:21:50;9.90;59.98
76040;SHT30;64736;50.462;4.850;2023-02-15T18:24:21;9.94;59.92
76040;SHT30;64736;50.462;4.850;2023-02-15T18:26:49;9.81;60.37
76040;SHT30;64736;50.462;4.850;2023-02-15T18:29:15;9.71;60.55
76040;SHT30;64736;50.462;4.850;2023-02-15T18:31:43;9.53;61.11
76040;SHT30;64736;50.462;4.850;2023-02-15T18:34:32;9.74;59.91
76040;SHT30;64736;50.462;4.850;2023-02-15T18:36:59;9.70;60.09
76040;SHT30;64736;50.462;4.850;2023-02-15T18:39:37;9.81;59.65
76040;SHT30;64736;50.462;4.850;2023-02-15T18:42:05;9.46;61.13
76040;SHT30;64736;50.462;4.850;2023-02-15T18:44:31;9.46;61.37
76040;SHT30;64736;50.462;4.850;2023-02-15T18:46:57;9.25;62.55
76040;SHT30;64736;50.462;4.850;2023-02-15T18:49:23;9.25;62.37
76040;SHT30;64736;50.462;4.850;2023-02-15T18:51:49;9.47;61.54
76040;SHT30;64736;50.462;4.850;2023-02-15T18:54:21;9.14;63.28
76040;SHT30;64736;50.462;4.850;2023-02-15T18:56:54;8.88;64.14
76040;SHT30;64736;50.462;4.850;2023-02-15T18:59:20;8.74;65.06
76040;SHT30;64736;50.462;4.850;2023-02-15T19:01:46;8.39;65.69
76040;SHT30;64736;50.462;4.850;2023-02-15T19:04:12;8.65;65.42
76040;SHT30;64736;50.462;4.850;2023-02-15T19:06:42;8.65;64.99
76040;SHT30;64736;50.462;4.850;2023-02-15T19:09:21;8.61;65.59
76040;SHT30;64736;50.462;4.850;2023-02-15T19:11:53;8.39;65.86
76040;SHT30;64736;50.462;4.850;2023-02-15T19:14:23;8.37;66.52
76040;SHT30;64736;50.462;4.850;2023-02-15T19:16:50;8.29;66.59
76040;SHT30;64736;50.462;4.850;2023-02-15T19:19:16;8.29;66.96
76040;SHT30;64736;50.462;4.850;2023-02-15T19:21:41;8.51;65.96